sensor_id;sensor_type;location;lat;lon;timestamp;pressure;altitude;pressure_sealevel;temperature;humidity
11345;BME280;5727;42.600;23.028;2023-04-27T00:00:27;93391.72;;;7.62;84.39
11345;BME280;5727;42.600;23.028;2023-04-27T00:02:53;93391.16;;;7.57;84.30
11345;BME280;5727;42.600;23.028;2023-04-27T00:05:22;93389.59;;;7.56;84.10
11345;BME280;5727;42.600;23.028;2023-04-27T00:07:49;93399.00;;;7.48;84.53
11345;BME280;5727;42.600;23.028;2023-04-27T00:10:15;93402.69;;;7.38;84.94
11345;BME280;5727;42.600;23.028;2023-04-27T00:12:42;93394.28;;;7.33;85.57
11345;BME280;5727;42.600;23.028;2023-04-27T00:15:09;93399.81;;;7.31;84.26
11345;BME280;5727;42.600;23.028;2023-04-27T00:17:36;93401.78;;;7.34;84.65
11345;BME280;5727;42.600;23.028;2023-04-27T00:20:03;93404.25;;;7.31;84.33
11345;BME280;5727;42.600;23.028;2023-04-27T00:22:33;93398.75;;;7.32;84.05
11345;BME280;5727;42.600;23.028;2023-04-27T00:25:00;93400.88;;;7.30;84.50
11345;BME280;5727;42.600;23.028;2023-04-27T00:27:27;93400.44;;;7.28;85.62
11345;BME280;5727;42.600;23.028;2023-04-27T00:29:54;93400.78;;;7.18;86.29
11345;BME280;5727;42.600;23.028;2023-04-27T00:32:20;93400.94;;;7.13;87.16
11345;BME280;5727;42.600;23.028;2023-04-27T00:34:47;93403.72;;;7.00;87.39
11345;BME280;5727;42.600;23.028;2023-04-27T00:37:14;93405.25;;;7.09;88.17
11345;BME280;5727;42.600;23.028;2023-04-27T00:39:43;93396.38;;;7.10;87.88
11345;BME280;5727;42.600;23.028;2023-04-27T00:42:09;93400.66;;;6.98;89.54
11345;BME280;5727;42.600;23.028;2023-04-27T00:44:39;93397.00;;;6.99;88.97
11345;BME280;5727;42.600;23.028;2023-04-27T00:47:06;93397.47;;;7.01;89.07
11345;BME280;5727;42.600;23.028;2023-04-27T00:49:33;93405.41;;;6.96;90.19
11345;BME280;5727;42.600;23.028;2023-04-27T00:52:00;93401.44;;;6.90;90.85
11345;BME280;5727;42.600;23.028;2023-04-27T00:54:26;93407.75;;;6.80;90.92
11345;BME280;5727;42.600;23.028;2023-04-27T00:56:54;93412.22;;;6.80;91.88
11345;BME280;5727;42.600;23.028;2023-04-27T00:59:22;93404.22;;;6.76;91.32
11345;BME280;5727;42.600;23.028;2023-04-27T01:01:49;93404.84;;;6.73;91.66
11345;BME280;5727;42.600;23.028;2023-04-27T01:04:16;93407.44;;;6.73;92.65
11345;BME280;5727;42.600;23.028;2023-04-27T01:06:43;93416.19;;;6.69;93.03
11345;BME280;5727;42.600;23.028;2023-04-27T01:09:09;93410.38;;;6.63;92.88
11345;BME280;5727;42.600;23.028;2023-04-27T01:11:36;93408.38;;;6.60;96.31
11345;BME280;5727;42.600;23.028;2023-04-27T01:14:05;93410.97;;;6.52;92.77
11345;BME280;5727;42.600;23.028;2023-04-27T01:16:32;93414.38;;;6.43;95.22
11345;BME280;5727;42.600;23.028;2023-04-27T01:18:59;93411.13;;;6.55;96.33
11345;BME280;5727;42.600;23.028;2023-04-27T01:21:26;93405.50;;;6.53;96.71
11345;BME280;5727;42.600;23.028;2023-04-27T01:23:54;93403.31;;;6.38;96.42
11345;BME280;5727;42.600;23.028;2023-04-27T01:26:21;93408.38;;;6.34;98.34
11345;BME280;5727;42.600;23.028;2023-04-27T01:28:48;93416.47;;;6.24;98.98
11345;BME280;5727;42.600;23.028;2023-04-27T01:31:14;93415.56;;;6.29;99.07
11345;BME280;5727;42.600;23.028;2023-04-27T01:33:41;93417.88;;;6.22;96.98
11345;BME280;5727;42.600;23.028;2023-04-27T01:36:08;93412.34;;;6.15;94.36
11345;BME280;5727;42.600;23.028;2023-04-27T01:38:36;93419.69;;;6.04;94.24
11345;BME280;5727;42.600;23.028;2023-04-27T01:41:04;93421.03;;;6.02;96.37
11345;BME280;5727;42.600;23.028;2023-04-27T01:43:33;93422.25;;;5.96;95.30
11345;BME280;5727;42.600;23.028;2023-04-27T01:46:04;93425.16;;;5.94;94.49
11345;BME280;5727;42.600;23.028;2023-04-27T01:48:32;93422.56;;;5.86;94.68
11345;BME280;5727;42.600;23.028;2023-04-27T01:50:59;93427.53;;;5.82;94.02
11345;BME280;5727;42.600;23.028;2023-04-27T01:53:25;93429.59;;;5.85;93.68
11345;BME280;5727;42.600;23.028;2023-04-27T01:55:52;93428.22;;;5.88;93.65
11345;BME280;5727;42.600;23.028;2023-04-27T01:58:21;93428.94;;;5.80;92.63
11345;BME280;5727;42.600;23.028;2023-04-27T02:00:47;93426.31;;;5.80;92.34
11345;BME280;5727;42.600;23.028;2023-04-27T02:03:14;93429.88;;;5.84;91.93
11345;BME280;5727;42.600;23.028;2023-04-27T02:05:41;93427.84;;;5.81;90.27
11345;BME280;5727;42.600;23.028;2023-04-27T02:08:08;93426.31;;;5.80;90.26
11345;BME280;5727;42.600;23.028;2023-04-27T02:10:34;93430.13;;;5.82;90.23
11345;BME280;5727;42.600;23.028;2023-04-27T02:13:02;93437.69;;;5.84;90.12
11345;BME280;5727;42.600;23.028;2023-04-27T02:15:30;93434.59;;;5.82;89.65
11345;BME280;5727;42.600;23.028;2023-04-27T02:17:57;93432.28;;;5.80;89.90
11345;BME280;5727;42.600;23.028;2023-04-27T02:20:23;93435.66;;;5.81;89.64
11345;BME280;5727;42.600;23.028;2023-04-27T02:22:51;93437.69;;;5.84;89.76
11345;BME280;5727;42.600;23.028;2023-04-27T02:25:18;93437.47;;;5.80;89.74
11345;BME280;5727;42.600;23.028;2023-04-27T02:27:45;93437.03;;;5.78;90.10
11345;BME280;5727;42.600;23.028;2023-04-27T02:30:13;93443.91;;;5.74;90.42
11345;BME280;5727;42.600;23.028;2023-04-27T02:32:41;93439.44;;;5.75;90.72
11345;BME280;5727;42.600;23.028;2023-04-27T02:35:08;93435.34;;;5.82;91.08
11345;BME280;5727;42.600;23.028;2023-04-27T02:37:35;93436.75;;;5.88;89.32
11345;BME280;5727;42.600;23.028;2023-04-27T02:40:02;93437.69;;;5.84;90.28
11345;BME280;5727;42.600;23.028;2023-04-27T02:42:31;93440.00;;;5.94;90.38
11345;BME280;5727;42.600;23.028;2023-04-27T02:44:58;93444.72;;;5.92;90.92
11345;BME280;5727;42.600;23.028;2023-04-27T02:47:24;93446.28;;;5.93;89.76
11345;BME280;5727;42.600;23.028;2023-04-27T02:49:53;93450.53;;;5.89;89.63
11345;BME280;5727;42.600;23.028;2023-04-27T02:52:19;93449.03;;;5.88;90.74
11345;BME280;5727;42.600;23.028;2023-04-27T02:54:47;93447.47;;;5.87;91.06
11345;BME280;5727;42.600;23.028;2023-04-27T02:57:13;93449.09;;;5.83;91.19
11345;BME280;5727;42.600;23.028;2023-04-27T02:59:40;93455.22;;;5.78;90.97
11345;BME280;5727;42.600;23.028;2023-04-27T03:02:07;93448.19;;;5.79;90.51
11345;BME280;5727;42.600;23.028;2023-04-27T03:04:35;93457.81;;;5.78;91.51
11345;BME280;5727;42.600;23.028;2023-04-27T03:07:04;93463.09;;;5.56;91.77
11345;BME280;5727;42.600;23.028;2023-04-27T03:09:31;93457.72;;;5.52;92.99
11345;BME280;5727;42.600;23.028;2023-04-27T03:11:57;93462.75;;;5.49;92.40
11345;BME280;5727;42.600;23.028;2023-04-27T03:14:24;93467.91;;;5.40;91.25
11345;BME280;5727;42.600;23.028;2023-04-27T03:16:51;93460.72;;;5.37;91.59
11345;BME280;5727;42.600;23.028;2023-04-27T03:19:19;93457.66;;;5.35;93.36
11345;BME280;5727;42.600;23.028;2023-04-27T03:21:46;93464.03;;;5.29;93.80
11345;BME280;5727;42.600;23.028;2023-04-27T03:24:14;93462.69;;;5.32;93.90
11345;BME280;5727;42.600;23.028;2023-04-27T03:26:41;93467.94;;;5.18;94.68
11345;BME280;5727;42.600;23.028;2023-04-27T03:29:08;93470.06;;;5.16;93.88
11345;BME280;5727;42.600;23.028;2023-04-27T03:31:35;93470.06;;;5.16;94.53
11345;BME280;5727;42.600;23.028;2023-04-27T03:34:01;93472.78;;;5.11;93.91
11345;BME280;5727;42.600;23.028;2023-04-27T03:36:28;93471.75;;;5.21;93.51
11345;BME280;5727;42.600;23.028;2023-04-27T03:38:56;93469.47;;;5.19;94.01
11345;BME280;5727;42.600;23.028;2023-04-27T03:41:25;93471.59;;;5.17;91.72
11345;BME280;5727;42.600;23.028;2023-04-27T03:43:51;93479.22;;;5.14;91.16
11345;BME280;5727;42.600;23.028;2023-04-27T03:46:18;93477.50;;;5.09;93.22
11345;BME280;5727;42.600;23.028;2023-04-27T03:48:45;93481.22;;;5.17;91.52
11345;BME280;5727;42.600;23.028;2023-04-27T03:51:12;93487.31;;;5.12;92.06
11345;BME280;5727;42.600;23.028;2023-04-27T03:53:39;93483.53;;;5.18;92.48
11345;BME280;5727;42.600;23.028;2023-04-27T03:56:06;93491.97;;;5.24;91.70
11345;BME280;5727;42.600;23.028;2023-04-27T03:58:34;93497.00;;;5.20;91.04
11345;BME280;5727;42.600;23.028;2023-04-27T04:01:01;93494.41;;;5.20;91.97
11345;BME280;5727;42.600;23.028;2023-04-27T04:03:28;93498.16;;;5.14;90.99
11345;BME280;5727;42.600;23.028;2023-04-27T04:05:55;93502.66;;;5.22;91.32
11345;BME280;5727;42.600;23.028;2023-04-27T04:08:21;93505.28;;;5.31;89.75
11345;BME280;5727;42.600;23.028;2023-04-27T04:10:48;93515.56;;;5.36;90.06
11345;BME280;5727;42.600;23.028;2023-04-27T04:13:15;93511.13;;;5.36;90.20
11345;BME280;5727;42.600;23.028;2023-04-27T04:15:43;93520.84;;;5.53;89.62
11345;BME280;5727;42.600;23.028;2023-04-27T04:18:10;93517.72;;;5.65;89.77
11345;BME280;5727;42.600;23.028;2023-04-27T04:20:36;93530.16;;;5.76;90.43
11345;BME280;5727;42.600;23.028;2023-04-27T04:23:03;93530.34;;;5.88;89.98
11345;BME280;5727;42.600;23.028;2023-04-27T04:25:30;93525.19;;;5.97;91.74
11345;BME280;5727;42.600;23.028;2023-04-27T04:27:57;93528.13;;;6.04;89.08
11345;BME280;5727;42.600;23.028;2023-04-27T04:30:24;93529.09;;;6.16;89.52
11345;BME280;5727;42.600;23.028;2023-04-27T04:32:53;93533.53;;;6.16;88.62
11345;BME280;5727;42.600;23.028;2023-04-27T04:35:20;93533.94;;;6.09;90.03
11345;BME280;5727;42.600;23.028;2023-04-27T04:37:47;93542.69;;;6.13;90.52
11345;BME280;5727;42.600;23.028;2023-04-27T04:40:14;93542.28;;;6.28;89.75
11345;BME280;5727;42.600;23.028;2023-04-27T04:42:41;93541.91;;;6.13;86.06
11345;BME280;5727;42.600;23.028;2023-04-27T04:45:08;93542.88;;;6.25;86.02
11345;BME280;5727;42.600;23.028;2023-04-27T04:47:35;93545.50;;;6.34;85.82
11345;BME280;5727;42.600;23.028;2023-04-27T04:50:04;93549.06;;;6.46;83.84
11345;BME280;5727;42.600;23.028;2023-04-27T04:52:31;93551.34;;;6.48;83.28
11345;BME280;5727;42.600;23.028;2023-04-27T04:54:57;93551.97;;;6.45;84.93
11345;BME280;5727;42.600;23.028;2023-04-27T04:57:24;93554.44;;;6.50;83.44
11345;BME280;5727;42.600;23.028;2023-04-27T04:59:51;93556.41;;;6.44;83.58
11345;BME280;5727;42.600;23.028;2023-04-27T05:02:18;93553.66;;;6.49;83.64
11345;BME280;5727;42.600;23.028;2023-04-27T05:04:45;93567.63;;;6.62;84.44
11345;BME280;5727;42.600;23.028;2023-04-27T05:07:13;93567.31;;;6.64;82.56
11345;BME280;5727;42.600;23.028;2023-04-27T05:09:39;93566.06;;;6.61;83.14
11345;BME280;5727;42.600;23.028;2023-04-27T05:12:06;93567.47;;;6.67;84.37
11345;BME280;5727;42.600;23.028;2023-04-27T05:14:33;93572.25;;;6.74;84.61
11345;BME280;5727;42.600;23.028;2023-04-27T05:17:00;93579.41;;;6.60;82.84
11345;BME280;5727;42.600;23.028;2023-04-27T05:19:28;93579.28;;;6.65;82.84
11345;BME280;5727;42.600;23.028;2023-04-27T05:21:55;93579.91;;;6.70;83.11
11345;BME280;5727;42.600;23.028;2023-04-27T05:24:25;93573.44;;;6.68;83.27
11345;BME280;5727;42.600;23.028;2023-04-27T05:26:52;93573.16;;;6.78;84.54
11345;BME280;5727;42.600;23.028;2023-04-27T05:29:19;93571.63;;;6.85;84.14
11345;BME280;5727;42.600;23.028;2023-04-27T05:31:46;93581.59;;;6.92;83.53
11345;BME280;5727;42.600;23.028;2023-04-27T05:34:12;93582.19;;;6.97;82.14
11345;BME280;5727;42.600;23.028;2023-04-27T05:36:39;93577.78;;;6.98;80.45
11345;BME280;5727;42.600;23.028;2023-04-27T05:39:06;93584.38;;;7.04;80.77
11345;BME280;5727;42.600;23.028;2023-04-27T05:41:34;93580.84;;;7.08;80.38
11345;BME280;5727;42.600;23.028;2023-04-27T05:44:01;93594.91;;;6.90;80.48
11345;BME280;5727;42.600;23.028;2023-04-27T05:46:28;93594.78;;;6.95;81.61
11345;BME280;5727;42.600;23.028;2023-04-27T05:48:54;93586.06;;;6.91;81.10
11345;BME280;5727;42.600;23.028;2023-04-27T05:51:21;93596.78;;;6.98;80.18
11345;BME280;5727;42.600;23.028;2023-04-27T05:53:48;93591.56;;;6.98;79.17
11345;BME280;5727;42.600;23.028;2023-04-27T05:56:15;93596.47;;;7.08;79.49
11345;BME280;5727;42.600;23.028;2023-04-27T05:58:44;93601.69;;;7.25;79.06
11345;BME280;5727;42.600;23.028;2023-04-27T06:01:11;93606.44;;;7.23;76.73
11345;BME280;5727;42.600;23.028;2023-04-27T06:03:38;93602.75;;;7.16;76.36
11345;BME280;5727;42.600;23.028;2023-04-27T06:06:05;93604.00;;;7.27;77.48
11345;BME280;5727;42.600;23.028;2023-04-27T06:08:32;93597.69;;;7.36;77.69
11345;BME280;5727;42.600;23.028;2023-04-27T06:11:01;93598.91;;;7.56;75.78
11345;BME280;5727;42.600;23.028;2023-04-27T06:13:29;93593.84;;;7.51;76.03
11345;BME280;5727;42.600;23.028;2023-04-27T06:15:58;93603.38;;;7.47;75.50
11345;BME280;5727;42.600;23.028;2023-04-27T06:31:53;93579.38;;;8.43;71.92
11345;BME280;5727;42.600;23.028;2023-04-27T06:34:21;93578.34;;;8.26;72.69
11345;BME280;5727;42.600;23.028;2023-04-27T06:36:48;93570.75;;;7.96;75.13
11345;BME280;5727;42.600;23.028;2023-04-27T06:39:15;93574.91;;;7.88;73.00
11345;BME280;5727;42.600;23.028;2023-04-27T06:41:42;93573.41;;;7.79;73.53
11345;BME280;5727;42.600;23.028;2023-04-27T06:44:09;93575.25;;;7.87;74.81
11345;BME280;5727;42.600;23.028;2023-04-27T06:46:36;93576.16;;;7.91;74.73
11345;BME280;5727;42.600;23.028;2023-04-27T06:49:04;93582.88;;;7.92;74.67
11345;BME280;5727;42.600;23.028;2023-04-27T06:51:31;93580.00;;;7.85;73.54
11345;BME280;5727;42.600;23.028;2023-04-27T06:53:58;93581.69;;;7.81;73.98
11345;BME280;5727;42.600;23.028;2023-04-27T06:56:24;93600.84;;;7.93;72.98
11345;BME280;5727;42.600;23.028;2023-04-27T06:58:51;93580.78;;;7.85;72.98
11345;BME280;5727;42.600;23.028;2023-04-27T07:01:18;93571.72;;;7.91;72.83
11345;BME280;5727;42.600;23.028;2023-04-27T07:03:45;93570.41;;;8.06;72.85
11345;BME280;5727;42.600;23.028;2023-04-27T07:06:13;93574.22;;;8.17;72.65
11345;BME280;5727;42.600;23.028;2023-04-27T07:08:40;93564.97;;;8.37;71.89
11345;BME280;5727;42.600;23.028;2023-04-27T07:11:07;93567.94;;;8.56;69.59
11345;BME280;5727;42.600;23.028;2023-04-27T07:13:34;93569.63;;;8.52;66.62
11345;BME280;5727;42.600;23.028;2023-04-27T07:16:01;93586.88;;;8.44;67.62
11345;BME280;5727;42.600;23.028;2023-04-27T07:18:27;93573.56;;;8.37;69.12
11345;BME280;5727;42.600;23.028;2023-04-27T07:20:55;93567.34;;;8.50;68.78
11345;BME280;5727;42.600;23.028;2023-04-27T07:23:24;93583.13;;;8.62;68.72
11345;BME280;5727;42.600;23.028;2023-04-27T07:25:51;93565.19;;;8.81;67.94
11345;BME280;5727;42.600;23.028;2023-04-27T07:28:18;93563.72;;;8.92;67.34
11345;BME280;5727;42.600;23.028;2023-04-27T07:44:28;93588.22;;;9.94;62.44
11345;BME280;5727;42.600;23.028;2023-04-27T07:46:55;93579.78;;;9.23;65.18
11345;BME280;5727;42.600;23.028;2023-04-27T07:49:22;93578.19;;;9.31;65.64
11345;BME280;5727;42.600;23.028;2023-04-27T07:51:50;93594.66;;;9.32;64.69
11345;BME280;5727;42.600;23.028;2023-04-27T07:54:17;93595.84;;;9.13;64.30
11345;BME280;5727;42.600;23.028;2023-04-27T07:56:43;93590.09;;;8.99;64.89
11345;BME280;5727;42.600;23.028;2023-04-27T07:59:10;93598.38;;;9.01;65.05
11345;BME280;5727;42.600;23.028;2023-04-27T08:01:40;93599.38;;;8.88;66.05
11345;BME280;5727;42.600;23.028;2023-04-27T08:04:07;93591.44;;;8.85;66.25
11345;BME280;5727;42.600;23.028;2023-04-27T08:06:33;93593.34;;;8.96;66.28
11345;BME280;5727;42.600;23.028;2023-04-27T08:09:00;93599.69;;;9.16;65.45
11345;BME280;5727;42.600;23.028;2023-04-27T08:11:28;93595.97;;;9.17;65.45
11345;BME280;5727;42.600;23.028;2023-04-27T08:13:55;93599.44;;;9.30;64.68
11345;BME280;5727;42.600;23.028;2023-04-27T08:16:22;93599.47;;;9.42;63.57
11345;BME280;5727;42.600;23.028;2023-04-27T08:18:50;93591.50;;;9.38;62.71
11345;BME280;5727;42.600;23.028;2023-04-27T08:21:17;93596.38;;;9.81;63.50
11345;BME280;5727;42.600;23.028;2023-04-27T08:23:44;93594.88;;;9.92;61.45
11345;BME280;5727;42.600;23.028;2023-04-27T08:26:13;93591.84;;;10.02;61.86
11345;BME280;5727;42.600;23.028;2023-04-27T08:28:40;93590.69;;;9.79;60.25
11345;BME280;5727;42.600;23.028;2023-04-27T08:31:07;93590.91;;;9.86;61.45
11345;BME280;5727;42.600;23.028;2023-04-27T08:33:33;93590.47;;;9.72;61.89
11345;BME280;5727;42.600;23.028;2023-04-27T08:36:02;93588.63;;;9.52;61.12
11345;BME280;5727;42.600;23.028;2023-04-27T08:38:28;93587.38;;;9.37;61.72
11345;BME280;5727;42.600;23.028;2023-04-27T08:40:55;93590.03;;;9.49;61.94
11345;BME280;5727;42.600;23.028;2023-04-27T08:43:22;93584.22;;;9.64;61.94
11345;BME280;5727;42.600;23.028;2023-04-27T08:45:49;93570.50;;;9.67;61.54
11345;BME280;5727;42.600;23.028;2023-04-27T08:48:16;93591.91;;;9.81;59.72
11345;BME280;5727;42.600;23.028;2023-04-27T08:50:43;93584.56;;;9.75;61.40
11345;BME280;5727;42.600;23.028;2023-04-27T08:53:19;93590.09;;;10.06;59.67
11345;BME280;5727;42.600;23.028;2023-04-27T08:55:46;93577.66;;;10.03;57.66
11345;BME280;5727;42.600;23.028;2023-04-27T08:58:13;93583.75;;;9.95;58.21
11345;BME280;5727;42.600;23.028;2023-04-27T09:00:41;93579.50;;;9.90;60.27
11345;BME280;5727;42.600;23.028;2023-04-27T09:03:17;93587.66;;;9.89;57.78
11345;BME280;5727;42.600;23.028;2023-04-27T09:05:45;93567.28;;;9.94;60.00
11345;BME280;5727;42.600;23.028;2023-04-27T09:08:12;93577.28;;;10.13;57.91
11345;BME280;5727;42.600;23.028;2023-04-27T09:10:47;93576.94;;;10.14;56.95
11345;BME280;5727;42.600;23.028;2023-04-27T09:13:14;93576.09;;;10.35;56.05
11345;BME280;5727;42.600;23.028;2023-04-27T09:15:42;93585.63;;;10.39;56.43
11345;BME280;5727;42.600;23.028;2023-04-27T09:18:18;93573.16;;;10.48;55.07
11345;BME280;5727;42.600;23.028;2023-04-27T09:20:46;93568.78;;;10.64;55.67
11345;BME280;5727;42.600;23.028;2023-04-27T09:23:26;93562.47;;;10.77;55.96
11345;BME280;5727;42.600;23.028;2023-04-27T09:25:55;93563.31;;;10.21;55.72
11345;BME280;5727;42.600;23.028;2023-04-27T09:28:23;93569.84;;;10.15;56.18
11345;BME280;5727;42.600;23.028;2023-04-27T09:30:52;93558.31;;;10.16;56.42
11345;BME280;5727;42.600;23.028;2023-04-27T09:33:23;93581.69;;;10.33;56.99
11345;BME280;5727;42.600;23.028;2023-04-27T09:35:51;93549.78;;;10.43;55.52
11345;BME280;5727;42.600;23.028;2023-04-27T09:38:19;93559.19;;;10.32;54.66
11345;BME280;5727;42.600;23.028;2023-04-27T09:40:46;93551.56;;;10.39;55.79
11345;BME280;5727;42.600;23.028;2023-04-27T09:43:14;93549.16;;;10.46;54.53
11345;BME280;5727;42.600;23.028;2023-04-27T09:45:42;93548.34;;;10.82;54.52
11345;BME280;5727;42.600;23.028;2023-04-27T09:48:09;93550.81;;;11.15;54.99
11345;BME280;5727;42.600;23.028;2023-04-27T09:50:37;93545.19;;;11.00;54.18
11345;BME280;5727;42.600;23.028;2023-04-27T09:53:05;93541.34;;;11.38;53.05
11345;BME280;5727;42.600;23.028;2023-04-27T09:55:38;93544.44;;;11.55;51.38
11345;BME280;5727;42.600;23.028;2023-04-27T09:58:27;93525.13;;;11.48;51.63
11345;BME280;5727;42.600;23.028;2023-04-27T10:01:05;93544.97;;;11.33;53.09
11345;BME280;5727;42.600;23.028;2023-04-27T10:03:42;93538.25;;;11.48;53.38
11345;BME280;5727;42.600;23.028;2023-04-27T10:09:26;93532.19;;;12.18;49.21
11345;BME280;5727;42.600;23.028;2023-04-27T10:11:54;93541.16;;;12.02;48.05
11345;BME280;5727;42.600;23.028;2023-04-27T10:14:23;93550.44;;;11.68;47.51
11345;BME280;5727;42.600;23.028;2023-04-27T10:16:51;93535.31;;;11.65;47.85
11345;BME280;5727;42.600;23.028;2023-04-27T10:19:19;93538.59;;;11.89;45.72
11345;BME280;5727;42.600;23.028;2023-04-27T10:21:54;93529.03;;;11.81;47.50
11345;BME280;5727;42.600;23.028;2023-04-27T10:24:35;93542.44;;;11.37;49.75
11345;BME280;5727;42.600;23.028;2023-04-27T10:27:03;93534.25;;;11.38;50.74
11345;BME280;5727;42.600;23.028;2023-04-27T10:29:37;93551.41;;;11.63;48.63
11345;BME280;5727;42.600;23.028;2023-04-27T10:32:08;93552.56;;;11.78;49.99
11345;BME280;5727;42.600;23.028;2023-04-27T10:34:35;93539.72;;;11.88;48.75
11345;BME280;5727;42.600;23.028;2023-04-27T10:37:07;93547.69;;;12.08;47.48
11345;BME280;5727;42.600;23.028;2023-04-27T10:39:35;93542.97;;;12.13;47.52
11345;BME280;5727;42.600;23.028;2023-04-27T10:42:02;93534.66;;;12.42;48.45
11345;BME280;5727;42.600;23.028;2023-04-27T10:44:30;93529.06;;;12.94;47.80
11345;BME280;5727;42.600;23.028;2023-04-27T10:47:00;93531.44;;;12.33;46.89
11345;BME280;5727;42.600;23.028;2023-04-27T10:49:27;93549.78;;;11.86;47.27
11345;BME280;5727;42.600;23.028;2023-04-27T10:51:57;93549.38;;;12.00;47.64
11345;BME280;5727;42.600;23.028;2023-04-27T10:54:26;93541.00;;;12.41;47.47
11345;BME280;5727;42.600;23.028;2023-04-27T10:56:53;93539.41;;;12.52;45.69
11345;BME280;5727;42.600;23.028;2023-04-27T10:59:20;93538.88;;;12.62;46.31
11345;BME280;5727;42.600;23.028;2023-04-27T11:01:48;93539.56;;;12.94;44.90
11345;BME280;5727;42.600;23.028;2023-04-27T11:04:17;93536.16;;;13.09;43.36
11345;BME280;5727;42.600;23.028;2023-04-27T11:06:44;93534.16;;;12.52;44.36
11345;BME280;5727;42.600;23.028;2023-04-27T11:09:12;93522.06;;;12.67;44.94
11345;BME280;5727;42.600;23.028;2023-04-27T11:11:43;93537.53;;;12.87;43.46
11345;BME280;5727;42.600;23.028;2023-04-27T11:14:14;93533.81;;;13.04;43.19
11345;BME280;5727;42.600;23.028;2023-04-27T11:16:45;93531.69;;;13.29;43.06
11345;BME280;5727;42.600;23.028;2023-04-27T11:19:12;93528.69;;;13.49;42.86
11345;BME280;5727;42.600;23.028;2023-04-27T11:21:40;93533.00;;;13.38;42.21
11345;BME280;5727;42.600;23.028;2023-04-27T11:24:08;93541.78;;;13.08;44.49
11345;BME280;5727;42.600;23.028;2023-04-27T11:26:35;93544.97;;;13.17;44.14
11345;BME280;5727;42.600;23.028;2023-04-27T11:29:04;93539.34;;;13.18;42.12
11345;BME280;5727;42.600;23.028;2023-04-27T11:31:39;93537.13;;;12.85;41.33
11345;BME280;5727;42.600;23.028;2023-04-27T11:34:08;93541.50;;;13.13;43.00
11345;BME280;5727;42.600;23.028;2023-04-27T11:36:34;93533.03;;;13.04;41.61
11345;BME280;5727;42.600;23.028;2023-04-27T11:39:03;93541.63;;;12.85;42.31
11345;BME280;5727;42.600;23.028;2023-04-27T11:41:32;93544.78;;;12.75;42.95
11345;BME280;5727;42.600;23.028;2023-04-27T11:44:03;93539.38;;;13.37;41.43
11345;BME280;5727;42.600;23.028;2023-04-27T11:46:32;93537.97;;;13.24;40.96
11345;BME280;5727;42.600;23.028;2023-04-27T11:49:01;93557.56;;;13.27;41.80
11345;BME280;5727;42.600;23.028;2023-04-27T11:51:29;93549.31;;;12.94;42.12
11345;BME280;5727;42.600;23.028;2023-04-27T11:54:00;93543.53;;;13.38;42.46
11345;BME280;5727;42.600;23.028;2023-04-27T11:56:34;93538.88;;;13.70;40.22
11345;BME280;5727;42.600;23.028;2023-04-27T11:59:02;93547.09;;;13.88;40.39
11345;BME280;5727;42.600;23.028;2023-04-27T12:01:30;93551.78;;;13.56;39.97
11345;BME280;5727;42.600;23.028;2023-04-27T12:03:57;93540.44;;;14.16;39.89
11345;BME280;5727;42.600;23.028;2023-04-27T12:06:24;93552.47;;;14.59;38.01
11345;BME280;5727;42.600;23.028;2023-04-27T12:08:51;93535.03;;;15.03;36.15
11345;BME280;5727;42.600;23.028;2023-04-27T12:11:18;93531.38;;;15.11;35.20
11345;BME280;5727;42.600;23.028;2023-04-27T12:13:46;93536.31;;;14.15;36.90
11345;BME280;5727;42.600;23.028;2023-04-27T12:16:13;93538.56;;;13.94;39.44
11345;BME280;5727;42.600;23.028;2023-04-27T12:18:39;93535.75;;;14.06;38.45
11345;BME280;5727;42.600;23.028;2023-04-27T12:21:06;93549.53;;;14.19;38.68
11345;BME280;5727;42.600;23.028;2023-04-27T12:23:34;93554.25;;;14.29;37.47
11345;BME280;5727;42.600;23.028;2023-04-27T12:26:01;93540.41;;;14.35;36.89
11345;BME280;5727;42.600;23.028;2023-04-27T12:28:28;93542.50;;;14.26;37.03
11345;BME280;5727;42.600;23.028;2023-04-27T12:30:56;93544.00;;;14.99;35.72
11345;BME280;5727;42.600;23.028;2023-04-27T12:33:23;93543.25;;;14.98;35.39
11345;BME280;5727;42.600;23.028;2023-04-27T12:35:50;93539.94;;;15.31;35.54
11345;BME280;5727;42.600;23.028;2023-04-27T12:38:17;93527.59;;;15.72;34.78
11345;BME280;5727;42.600;23.028;2023-04-27T12:40:44;93531.63;;;15.62;34.60
11345;BME280;5727;42.600;23.028;2023-04-27T12:43:10;93526.66;;;15.87;33.86
11345;BME280;5727;42.600;23.028;2023-04-27T12:45:38;93532.03;;;15.64;34.89
11345;BME280;5727;42.600;23.028;2023-04-27T12:48:07;93531.13;;;14.94;35.82
11345;BME280;5727;42.600;23.028;2023-04-27T12:50:35;93536.00;;;14.43;36.62
11345;BME280;5727;42.600;23.028;2023-04-27T12:53:03;93530.84;;;14.73;37.42
11345;BME280;5727;42.600;23.028;2023-04-27T12:55:29;93553.06;;;14.98;36.16
11345;BME280;5727;42.600;23.028;2023-04-27T12:57:56;93531.44;;;14.17;36.90
11345;BME280;5727;42.600;23.028;2023-04-27T13:00:23;93540.97;;;14.03;37.81
11345;BME280;5727;42.600;23.028;2023-04-27T13:02:51;93530.50;;;14.51;37.08
11345;BME280;5727;42.600;23.028;2023-04-27T13:05:19;93534.13;;;14.66;35.90
11345;BME280;5727;42.600;23.028;2023-04-27T13:07:46;93533.38;;;15.47;36.42
11345;BME280;5727;42.600;23.028;2023-04-27T13:10:13;93532.16;;;16.11;33.84
11345;BME280;5727;42.600;23.028;2023-04-27T13:12:40;93534.41;;;16.09;32.92
11345;BME280;5727;42.600;23.028;2023-04-27T13:15:08;93550.50;;;14.79;35.76
11345;BME280;5727;42.600;23.028;2023-04-27T13:17:35;93541.22;;;13.75;38.25
11345;BME280;5727;42.600;23.028;2023-04-27T13:20:02;93536.16;;;13.86;39.16
11345;BME280;5727;42.600;23.028;2023-04-27T13:22:30;93535.63;;;13.76;38.66
11345;BME280;5727;42.600;23.028;2023-04-27T13:24:56;93529.94;;;13.74;39.22
11345;BME280;5727;42.600;23.028;2023-04-27T13:27:23;93533.13;;;14.06;37.50
11345;BME280;5727;42.600;23.028;2023-04-27T13:29:52;93519.25;;;15.07;39.09
11345;BME280;5727;42.600;23.028;2023-04-27T13:32:19;93520.84;;;16.11;33.24
11345;BME280;5727;42.600;23.028;2023-04-27T13:34:46;93526.91;;;16.55;31.49
11345;BME280;5727;42.600;23.028;2023-04-27T13:37:13;93528.84;;;16.62;31.73
11345;BME280;5727;42.600;23.028;2023-04-27T13:39:42;93529.00;;;16.39;32.57